Amber, NY

2:00 PM EST on November 27, 2014 (GMT -0500)
Otisco Lake | Change Station
CLOSE
Current Station
Personal Weather Station
Location: Marietta, NY
Elevation: 1140 ft
Nearby Weather Stations

Elev 1140 ft 42.87 °N, 76.27 °W | Updated 6 seconds ago

Overcast
Overcast
30.4 °F
Feels Like 30 °F
N
0.0
Wind Variable Wind from NNW
Gusts 0.0 mph

Today
High -- | Low -- °F
--% Chance of Precip.
Yesterday
High -- | Low -- °F
Precip. -- in
7:11 AM 4:33 PM
Waxing Crescent, 32% visible
Pressure 30.03 in
Visibility 6.0 miles
Clouds Overcast 3500 ft
Windchill 30 °F
Dew Point 26 °F
Humidity 85%
Rainfall 0.00 in
Snow Depth Not available.
UV 0 out of 12
Pollen .10 out of 12
Air Quality Not available.
Flu Activity Not available.
METAR KSYR 271854Z 31003KT 6SM -SN OVC035 M01/M04 A3002 RMK AO2 VIS 2 1/2 NW SLP169 P0000 T10111039

More Conditions Fewer Conditions

Pressure 30.03 in
Visibility 6.0 miles
Clouds Overcast 3500 ft
Windchill 30 °F
Dew Point 26 °F
Humidity 85%
Rainfall 0.00 in
Snow Depth Not available.
UV 0 out of 12
Pollen .10 out of 12
Air Quality Not available.
Flu Activity Not available.
METAR KSYR 271854Z 31003KT 6SM -SN OVC035 M01/M04 A3002 RMK AO2 VIS 2 1/2 NW SLP169 P0000 T10111039

More Conditions Fewer Conditions

10-Day Weather Forecast

Almanac

Astronomy

Nov. 27, 2014 Rise Set
Actual Time
Civil Twilight
Nautical Twilight
Astronomical Twilight
Moon
Length of Visible Light
Length of Day
Tomorrow will be .
, % of the Moon is Illuminated

Today's Extremes

State Highs State Lows

Community

WunderPhotos

Upload Photos

1,774,088 photos uploaded!

WunderBlogs® & News

Nearby

Air Quality

  Air Quality AQ Index Pollutant
Not available.

Snow Depth

Station Depth Elevation

Earthquake Activity

City Distance Mag. Time & Date
Minimum magnitude displayed is 2.5.

Coastal Water Temperatures

Place Temperature

Nearby Weather Stations